Time;durP1;ratioP1;P1;durP2;ratioP2;P2;SDS_P1;SDS_P2;PMS_P1;PMS_P2;Temp;Humidity;BMP_temperature;BMP_pressure;BME280_temperature;BME280_humidity;BME280_pressure;Samples;Min_cycle;Max_cycle;Signal;HPM_P1;HPM_P2
2023/05/09 00:01:30;;;;;;;;;;;19.90;46.00;;;;;;5006033;28;19910;-68
2023/05/09 00:03:57;;;;;;;;;;;19.80;46.00;;;;;;4987265;28;19919;-67
2023/05/09 00:06:22;;;;;;;;;;;19.80;46.00;;;;;;4986572;28;19981;-68
2023/05/09 00:08:48;;;;;;;;;;;19.80;46.00;;;;;;4968856;28;19918;-68
2023/05/09 00:11:13;;;;;;;;;;;19.70;46.00;;;;;;4987548;28;19914;-68
2023/05/09 00:13:40;;;;;;;;;;;19.70;46.10;;;;;;4987217;28;20452;-68
2023/05/09 00:16:06;;;;;;;;;;;19.70;46.10;;;;;;5006040;28;19910;-68
2023/05/09 00:18:32;;;;;;;;;;;19.70;46.00;;;;;;5010572;28;19922;-68
2023/05/09 00:20:58;;;;;;;;;;;19.60;46.10;;;;;;5010686;28;20397;-68
2023/05/09 00:23:23;;;;;;;;;;;19.60;46.10;;;;;;5010780;28;20008;-68
2023/05/09 00:25:49;;;;;;;;;;;19.60;46.10;;;;;;5010527;28;20348;-68
2023/05/09 00:28:15;;;;;;;;;;;19.60;46.20;;;;;;5010760;28;19921;-68
2023/05/09 00:30:40;;;;;;;;;;;19.60;46.20;;;;;;5002209;28;19981;-68
2023/05/09 00:33:06;;;;;;;;;;;19.60;46.20;;;;;;5002392;28;19918;-68
2023/05/09 00:35:31;;;;;;;;;;;19.60;46.30;;;;;;4997895;28;19914;-68
2023/05/09 00:37:58;;;;;;;;;;;19.60;46.20;;;;;;4991642;28;19981;-67
2023/05/09 00:40:23;;;;;;;;;;;19.60;46.30;;;;;;5002838;28;19915;-67
2023/05/09 00:42:49;;;;;;;;;;;19.60;46.30;;;;;;4990923;28;19918;-68
2023/05/09 00:45:15;;;;;;;;;;;19.60;46.20;;;;;;5001462;28;20008;-68
2023/05/09 00:47:40;;;;;;;;;;;19.60;46.20;;;;;;5009665;28;19932;-68
2023/05/09 00:50:06;;;;;;;;;;;19.60;46.20;;;;;;5010344;28;20280;-68
2023/05/09 00:52:31;;;;;;;;;;;19.50;46.10;;;;;;5010418;28;20278;-68
2023/05/09 00:54:57;;;;;;;;;;;19.50;46.10;;;;;;5010118;28;20417;-67
2023/05/09 00:57:22;;;;;;;;;;;19.40;46.10;;;;;;5004008;28;19968;-68
2023/05/09 00:59:48;;;;;;;;;;;19.40;46.10;;;;;;5010257;28;19949;-68
2023/05/09 01:02:15;;;;;;;;;;;19.30;46.10;;;;;;5010269;28;20258;-68
2023/05/09 01:04:40;;;;;;;;;;;19.30;46.10;;;;;;5009830;28;20080;-68
2023/05/09 01:07:15;;;;;;;;;;;19.20;46.20;;;;;;5010491;28;19909;-67
2023/05/09 01:09:45;;;;;;;;;;;19.20;46.20;;;;;;5010034;28;20396;-68
2023/05/09 01:12:15;;;;;;;;;;;19.20;46.20;;;;;;5010064;28;19913;-68
2023/05/09 01:14:55;;;;;;;;;;;19.10;46.20;;;;;;5009620;28;20073;-68
2023/05/09 01:17:53;;;;;;;;;;;19.10;46.20;;;;;;5006735;28;19945;-68
2023/05/09 01:20:19;;;;;;;;;;;19.00;46.30;;;;;;4985929;28;19921;-68
2023/05/09 01:22:47;;;;;;;;;;;18.90;46.40;;;;;;5003967;28;19918;-68
2023/05/09 01:25:22;;;;;;;;;;;18.80;46.40;;;;;;4991125;28;19938;-68
2023/05/09 01:27:52;;;;;;;;;;;18.80;46.40;;;;;;5007614;28;19972;-68
2023/05/09 01:30:18;;;;;;;;;;;18.80;46.50;;;;;;5008639;28;19921;-68
2023/05/09 01:32:45;;;;;;;;;;;18.70;46.40;;;;;;5008632;28;19918;-67
2023/05/09 01:35:12;;;;;;;;;;;18.70;46.50;;;;;;5008230;28;19937;-68
2023/05/09 01:37:38;;;;;;;;;;;18.70;46.50;;;;;;5008715;28;19918;-67
2023/05/09 01:40:10;;;;;;;;;;;18.60;46.60;;;;;;4990432;28;20400;-68
2023/05/09 01:42:55;;;;;;;;;;;18.60;46.50;;;;;;5006863;28;19937;-67
2023/05/09 01:45:22;;;;;;;;;;;18.50;46.60;;;;;;4988181;28;20361;-68
2023/05/09 01:47:48;;;;;;;;;;;18.50;46.60;;;;;;4987252;28;19944;-68
2023/05/09 01:50:14;;;;;;;;;;;18.40;46.50;;;;;;4987793;28;20378;-67
2023/05/09 01:52:41;;;;;;;;;;;18.40;46.50;;;;;;4996213;28;20362;-68
2023/05/09 01:55:07;;;;;;;;;;;18.30;46.60;;;;;;4987494;28;19921;-68
2023/05/09 01:57:33;;;;;;;;;;;18.30;46.60;;;;;;4984758;28;19990;-68
2023/05/09 02:00:00;;;;;;;;;;;18.30;46.60;;;;;;5006907;28;19918;-68
2023/05/09 02:02:26;;;;;;;;;;;18.20;46.50;;;;;;5006480;28;19914;-68
2023/05/09 02:04:53;;;;;;;;;;;18.20;46.60;;;;;;4988530;28;20285;-63
2023/05/09 02:07:19;;;;;;;;;;;18.20;46.70;;;;;;4974763;28;19932;-63
2023/05/09 02:09:45;;;;;;;;;;;18.20;46.80;;;;;;4989537;28;19914;-62
2023/05/09 02:12:10;;;;;;;;;;;18.10;46.70;;;;;;4974713;28;19918;-63
2023/05/09 02:14:35;;;;;;;;;;;18.00;46.80;;;;;;4975039;28;19925;-62
2023/05/09 02:17:05;;;;;;;;;;;18.00;46.80;;;;;;4974479;28;19911;-62
2023/05/09 02:19:34;;;;;;;;;;;17.90;46.80;;;;;;4974985;28;19918;-62
2023/05/09 02:22:00;;;;;;;;;;;17.80;47.00;;;;;;4962170;28;19921;-62
2023/05/09 02:24:26;;;;;;;;;;;17.80;47.20;;;;;;4994189;28;20358;-63
2023/05/09 02:26:52;;;;;;;;;;;17.80;47.30;;;;;;4976297;28;19916;-63
2023/05/09 02:29:19;;;;;;;;;;;17.70;47.40;;;;;;4994122;28;19918;-63
2023/05/09 02:31:45;;;;;;;;;;;17.70;47.50;;;;;;4993774;28;19983;-63
2023/05/09 02:34:12;;;;;;;;;;;17.70;47.60;;;;;;4984554;28;19918;-62
2023/05/09 02:36:37;;;;;;;;;;;17.70;47.60;;;;;;4974214;28;19921;-63
2023/05/09 02:39:03;;;;;;;;;;;17.60;47.60;;;;;;4974576;28;19918;-62
2023/05/09 02:41:28;;;;;;;;;;;17.60;47.50;;;;;;4993532;28;19910;-62
2023/05/09 02:43:54;;;;;;;;;;;17.60;47.40;;;;;;4993994;28;20020;-62
2023/05/09 02:46:20;;;;;;;;;;;17.50;47.20;;;;;;4989886;28;19961;-63
2023/05/09 02:48:45;;;;;;;;;;;17.50;47.30;;;;;;4974703;28;20265;-62
2023/05/09 02:51:10;;;;;;;;;;;17.40;47.30;;;;;;4979017;28;20293;-62
2023/05/09 02:53:36;;;;;;;;;;;17.40;47.80;;;;;;4974287;28;19922;-62
2023/05/09 02:56:02;;;;;;;;;;;17.40;48.00;;;;;;4976237;28;20292;-62
2023/05/09 02:58:28;;;;;;;;;;;17.40;47.90;;;;;;4993431;28;20420;-62
2023/05/09 03:00:53;;;;;;;;;;;17.40;47.80;;;;;;4987619;28;19997;-63
2023/05/09 03:03:20;;;;;;;;;;;17.40;47.80;;;;;;4992943;28;19921;-63
2023/05/09 03:05:46;;;;;;;;;;;17.40;47.90;;;;;;4988075;28;19920;-63
2023/05/09 03:08:11;;;;;;;;;;;17.40;47.90;;;;;;4993111;28;19917;-63
2023/05/09 03:10:37;;;;;;;;;;;17.30;47.90;;;;;;4992991;28;20365;-63
2023/05/09 03:13:02;;;;;;;;;;;17.30;47.90;;;;;;4992773;28;19940;-62
2023/05/09 03:15:28;;;;;;;;;;;17.30;48.00;;;;;;4992157;28;19969;-63
2023/05/09 03:17:53;;;;;;;;;;;17.40;48.00;;;;;;4979325;28;19957;-62
2023/05/09 03:20:19;;;;;;;;;;;17.30;48.00;;;;;;4986225;28;19914;-62
2023/05/09 03:22:44;;;;;;;;;;;17.30;48.00;;;;;;4992559;28;19918;-62
2023/05/09 03:25:10;;;;;;;;;;;17.30;48.20;;;;;;4992576;28;20362;-63
2023/05/09 03:27:35;;;;;;;;;;;17.30;48.20;;;;;;4992745;28;20326;-63
2023/05/09 03:30:01;;;;;;;;;;;17.30;48.30;;;;;;4992759;28;20009;-63
2023/05/09 03:32:26;;;;;;;;;;;17.30;48.20;;;;;;4992818;28;19925;-63
2023/05/09 03:34:51;;;;;;;;;;;17.30;48.30;;;;;;4992727;28;19914;-62
2023/05/09 03:37:17;;;;;;;;;;;17.30;48.30;;;;;;4991208;28;19921;-63
2023/05/09 03:39:42;;;;;;;;;;;17.30;48.20;;;;;;4992413;28;19914;-63
2023/05/09 03:42:08;;;;;;;;;;;17.30;48.20;;;;;;4992150;28;19921;-62
2023/05/09 03:44:33;;;;;;;;;;;17.30;48.20;;;;;;4990625;28;19926;-63
2023/05/09 03:46:59;;;;;;;;;;;17.30;48.10;;;;;;4982486;28;19919;-62
2023/05/09 03:49:24;;;;;;;;;;;17.30;48.10;;;;;;4980822;28;19934;-62
2023/05/09 03:51:50;;;;;;;;;;;17.30;48.00;;;;;;4972484;28;20081;-62
2023/05/09 03:54:15;;;;;;;;;;;17.30;48.00;;;;;;4985188;28;20365;-61
2023/05/09 03:56:40;;;;;;;;;;;17.40;48.00;;;;;;4972995;28;19989;-62
2023/05/09 03:59:06;;;;;;;;;;;17.40;48.00;;;;;;4966131;28;20025;-62
2023/05/09 04:01:31;;;;;;;;;;;17.50;47.90;;;;;;4992530;28;19945;-61
2023/05/09 04:03:57;;;;;;;;;;;17.50;47.80;;;;;;4992863;28;19945;-61
2023/05/09 04:06:22;;;;;;;;;;;17.60;47.70;;;;;;4992276;28;19914;-62
2023/05/09 04:08:48;;;;;;;;;;;17.70;47.60;;;;;;4992875;28;20258;-62
2023/05/09 04:11:13;;;;;;;;;;;17.70;47.50;;;;;;4982273;28;19984;-62
2023/05/09 04:13:39;;;;;;;;;;;17.80;47.50;;;;;;4973113;28;20398;-62
2023/05/09 04:16:04;;;;;;;;;;;17.80;47.30;;;;;;4972955;28;20055;-65
2023/05/09 04:18:30;;;;;;;;;;;17.90;47.20;;;;;;4973452;28;19961;-62
2023/05/09 04:20:55;;;;;;;;;;;18.00;47.20;;;;;;4972850;28;19910;-62
2023/05/09 04:23:21;;;;;;;;;;;18.20;47.40;;;;;;4973134;28;19926;-62
2023/05/09 04:25:46;;;;;;;;;;;18.40;47.40;;;;;;4972870;28;20416;-62
2023/05/09 04:28:12;;;;;;;;;;;18.60;46.60;;;;;;4972718;28;19925;-62
2023/05/09 04:30:37;;;;;;;;;;;18.70;46.20;;;;;;4955325;28;20053;-65
2023/05/09 04:33:03;;;;;;;;;;;18.80;45.80;;;;;;4973036;28;19962;-62
2023/05/09 04:35:28;;;;;;;;;;;18.80;45.50;;;;;;4972786;28;19918;-62
2023/05/09 04:37:53;;;;;;;;;;;18.80;45.20;;;;;;4972668;28;20314;-62
2023/05/09 04:40:19;;;;;;;;;;;18.90;45.00;;;;;;4972663;28;20293;-62
2023/05/09 04:42:45;;;;;;;;;;;18.90;44.80;;;;;;4972890;28;19914;-62
2023/05/09 04:45:10;;;;;;;;;;;18.90;44.50;;;;;;4972801;28;19918;-62
2023/05/09 04:47:36;;;;;;;;;;;19.00;44.40;;;;;;4975652;28;20274;-62
2023/05/09 04:50:02;;;;;;;;;;;19.00;44.40;;;;;;4982431;28;19960;-62
2023/05/09 04:52:27;;;;;;;;;;;19.10;44.30;;;;;;4979456;28;20267;-62
2023/05/09 04:54:53;;;;;;;;;;;19.10;44.20;;;;;;4991987;28;19914;-62
2023/05/09 04:57:18;;;;;;;;;;;19.20;44.20;;;;;;4988673;28;20325;-62
2023/05/09 04:59:44;;;;;;;;;;;19.20;44.20;;;;;;4997761;28;20293;-62
2023/05/09 05:02:09;;;;;;;;;;;19.30;44.00;;;;;;4991983;28;19918;-63
2023/05/09 05:04:35;;;;;;;;;;;19.30;43.90;;;;;;4995282;28;19929;-62
2023/05/09 05:07:00;;;;;;;;;;;19.50;44.00;;;;;;4996033;28;20453;-63
2023/05/09 05:09:25;;;;;;;;;;;19.50;43.90;;;;;;4995654;28;19968;-63
2023/05/09 05:11:51;;;;;;;;;;;19.60;43.80;;;;;;4995319;28;19999;-63
2023/05/09 05:14:16;;;;;;;;;;;19.70;43.60;;;;;;4995617;28;19925;-62
2023/05/09 05:16:42;;;;;;;;;;;19.70;43.50;;;;;;4995585;28;19917;-62
2023/05/09 05:19:07;;;;;;;;;;;19.70;43.60;;;;;;4995497;28;19917;-62
2023/05/09 05:21:33;;;;;;;;;;;19.80;43.60;;;;;;4996825;28;19960;-62
2023/05/09 05:23:58;;;;;;;;;;;19.80;43.60;;;;;;4995549;28;19949;-63
2023/05/09 05:26:24;;;;;;;;;;;20.00;43.50;;;;;;4994833;28;19960;-62
2023/05/09 05:28:54;;;;;;;;;;;20.10;43.50;;;;;;4995284;28;19922;-62
2023/05/09 05:31:20;;;;;;;;;;;20.20;43.40;;;;;;4994374;28;19925;-62
2023/05/09 05:33:45;;;;;;;;;;;20.30;43.30;;;;;;4995296;28;20349;-62
2023/05/09 05:36:10;;;;;;;;;;;20.50;43.10;;;;;;4989344;28;19961;-62
2023/05/09 05:38:36;;;;;;;;;;;20.60;42.90;;;;;;4986341;28;19917;-62
2023/05/09 05:41:01;;;;;;;;;;;20.70;42.90;;;;;;4994123;28;19914;-62
2023/05/09 05:43:27;;;;;;;;;;;20.70;42.90;;;;;;4984039;28;19917;-62
2023/05/09 05:45:52;;;;;;;;;;;20.80;43.00;;;;;;4994760;28;19980;-63
2023/05/09 05:48:18;;;;;;;;;;;21.00;43.00;;;;;;4994603;28;20441;-62
2023/05/09 05:50:43;;;;;;;;;;;21.30;43.50;;;;;;4994726;28;20053;-62
2023/05/09 05:53:08;;;;;;;;;;;21.60;43.00;;;;;;5004789;28;20068;-62
2023/05/09 05:55:34;;;;;;;;;;;22.10;42.80;;;;;;4989802;28;19971;-63
2023/05/09 05:57:59;;;;;;;;;;;22.60;42.50;;;;;;5002842;28;19929;-61
2023/05/09 06:00:25;;;;;;;;;;;23.20;42.80;;;;;;4993005;28;19917;-63
2023/05/09 06:02:50;;;;;;;;;;;24.00;41.90;;;;;;4994003;28;19918;-63
2023/05/09 06:05:16;;;;;;;;;;;24.50;40.00;;;;;;4993722;28;19918;-62
2023/05/09 06:07:43;;;;;;;;;;;24.80;38.90;;;;;;4978714;28;19925;-61
2023/05/09 06:10:09;;;;;;;;;;;25.00;38.50;;;;;;4983862;28;20296;-61
2023/05/09 06:12:34;;;;;;;;;;;25.30;38.30;;;;;;5009192;28;21081;-62
2023/05/09 06:15:00;;;;;;;;;;;25.50;37.90;;;;;;4988596;28;19949;-61
2023/05/09 06:17:25;;;;;;;;;;;25.70;37.40;;;;;;4985390;28;19910;-61
2023/05/09 06:19:51;;;;;;;;;;;25.80;37.10;;;;;;4988127;28;20005;-62
2023/05/09 06:22:16;;;;;;;;;;;25.90;36.90;;;;;;4973946;28;19910;-62
2023/05/09 06:24:42;;;;;;;;;;;26.10;36.50;;;;;;4988727;28;19914;-62
2023/05/09 06:27:07;;;;;;;;;;;26.20;36.30;;;;;;4991751;28;19917;-63
2023/05/09 06:29:33;;;;;;;;;;;26.40;36.50;;;;;;4986946;28;20017;-62
2023/05/09 06:31:58;;;;;;;;;;;26.80;36.40;;;;;;4983347;28;19944;-63
2023/05/09 06:34:24;;;;;;;;;;;27.30;36.30;;;;;;4998660;28;19940;-62
2023/05/09 06:36:49;;;;;;;;;;;27.80;35.30;;;;;;4991373;28;20008;-62
2023/05/09 06:39:15;;;;;;;;;;;28.30;34.80;;;;;;4994089;28;19988;-63
2023/05/09 06:41:40;;;;;;;;;;;28.80;34.50;;;;;;4992336;28;20020;-62
2023/05/09 06:44:06;;;;;;;;;;;29.30;33.50;;;;;;4993105;28;20004;-63
2023/05/09 06:46:31;;;;;;;;;;;29.50;32.60;;;;;;4990740;28;19992;-62
2023/05/09 06:48:56;;;;;;;;;;;29.60;32.40;;;;;;4984194;28;19924;-62
2023/05/09 06:51:22;;;;;;;;;;;29.70;32.30;;;;;;4992685;28;20020;-62
2023/05/09 06:53:47;;;;;;;;;;;29.80;32.10;;;;;;4993616;28;20017;-63
2023/05/09 06:56:13;;;;;;;;;;;30.00;31.90;;;;;;4989781;28;19961;-62
2023/05/09 06:58:38;;;;;;;;;;;30.10;31.50;;;;;;5000151;28;19921;-63
2023/05/09 07:01:04;;;;;;;;;;;30.30;31.50;;;;;;4992270;28;20000;-62
2023/05/09 07:03:29;;;;;;;;;;;30.60;31.40;;;;;;4984995;28;19972;-62
2023/05/09 07:05:57;;;;;;;;;;;30.80;30.90;;;;;;4979827;28;19964;-62
2023/05/09 07:08:23;;;;;;;;;;;31.10;30.70;;;;;;4973632;28;19973;-64
2023/05/09 07:10:49;;;;;;;;;;;31.50;30.70;;;;;;4992113;28;20325;-63
2023/05/09 07:13:14;;;;;;;;;;;32.00;30.20;;;;;;4993125;28;19913;-62
2023/05/09 07:15:40;;;;;;;;;;;32.50;29.80;;;;;;4992437;28;19917;-63
2023/05/09 07:18:05;;;;;;;;;;;32.90;29.40;;;;;;4992986;28;19917;-63
2023/05/09 07:20:31;;;;;;;;;;;33.40;28.80;;;;;;4992282;28;20352;-62
2023/05/09 07:22:57;;;;;;;;;;;33.70;28.10;;;;;;4992780;28;20312;-63
2023/05/09 07:25:22;;;;;;;;;;;33.80;27.60;;;;;;4991273;28;20402;-63
2023/05/09 07:27:48;;;;;;;;;;;33.80;27.50;;;;;;4992890;28;20011;-62
2023/05/09 07:30:13;;;;;;;;;;;33.70;27.60;;;;;;4991750;28;19920;-62
2023/05/09 07:32:39;;;;;;;;;;;33.70;27.60;;;;;;4992430;28;20352;-62
2023/05/09 07:35:04;;;;;;;;;;;33.60;27.70;;;;;;4992100;28;19913;-62
2023/05/09 07:37:30;;;;;;;;;;;33.50;27.70;;;;;;4984004;28;19917;-62
2023/05/09 07:39:55;;;;;;;;;;;33.50;27.80;;;;;;4973271;28;19918;-62
2023/05/09 07:42:21;;;;;;;;;;;33.50;28.00;;;;;;4979609;28;19913;-67
2023/05/09 07:44:46;;;;;;;;;;;33.60;28.20;;;;;;4994192;28;20000;-68
2023/05/09 07:47:12;;;;;;;;;;;33.50;27.80;;;;;;4993760;28;19980;-68
2023/05/09 07:49:39;;;;;;;;;;;33.50;27.90;;;;;;4994589;28;20004;-68
2023/05/09 07:52:04;;;;;;;;;;;33.50;28.00;;;;;;4994171;28;19918;-68
2023/05/09 07:54:30;;;;;;;;;;;33.60;28.00;;;;;;4994602;28;19968;-68
2023/05/09 07:56:55;;;;;;;;;;;33.60;28.00;;;;;;4992177;28;19947;-68
2023/05/09 07:59:21;;;;;;;;;;;33.40;27.70;;;;;;4995961;28;20375;-68
2023/05/09 08:01:46;;;;;;;;;;;33.20;27.90;;;;;;4996467;28;21366;-68
2023/05/09 08:04:12;;;;;;;;;;;32.80;28.40;;;;;;4997427;28;19918;-68
2023/05/09 08:06:37;;;;;;;;;;;32.60;28.60;;;;;;4995923;28;20060;-67
2023/05/09 08:09:03;;;;;;;;;;;32.30;28.80;;;;;;4997726;28;19972;-68
2023/05/09 08:11:31;;;;;;;;;;;32.00;29.10;;;;;;4997985;28;19918;-68
2023/05/09 08:13:56;;;;;;;;;;;31.90;29.60;;;;;;4999340;28;20381;-68
2023/05/09 08:16:22;;;;;;;;;;;31.80;29.80;;;;;;4998668;28;19913;-68
2023/05/09 08:18:47;;;;;;;;;;;31.70;30.20;;;;;;4999385;28;19918;-68
2023/05/09 08:21:13;;;;;;;;;;;31.70;30.20;;;;;;4997454;28;19955;-67
2023/05/09 08:23:40;;;;;;;;;;;31.70;30.30;;;;;;4998430;28;19964;-68
2023/05/09 08:26:05;;;;;;;;;;;31.50;30.40;;;;;;4997736;28;20013;-67
2023/05/09 08:28:30;;;;;;;;;;;31.30;30.50;;;;;;5000071;28;19918;-67
2023/05/09 08:30:56;;;;;;;;;;;31.10;30.80;;;;;;5000028;28;19985;-67
2023/05/09 08:33:22;;;;;;;;;;;30.80;31.10;;;;;;4999532;28;19965;-68
2023/05/09 08:35:50;;;;;;;;;;;30.70;31.30;;;;;;5000526;28;20353;-68
2023/05/09 08:38:16;;;;;;;;;;;30.40;31.50;;;;;;5002449;28;20330;-67
2023/05/09 08:40:41;;;;;;;;;;;30.10;31.90;;;;;;5004563;28;19925;-68
2023/05/09 08:43:07;;;;;;;;;;;29.80;32.40;;;;;;5004778;28;19924;-68
2023/05/09 08:45:38;;;;;;;;;;;29.80;32.80;;;;;;5005476;28;19910;-67
2023/05/09 08:48:05;;;;;;;;;;;29.60;33.00;;;;;;5004153;28;19957;-68
2023/05/09 08:50:31;;;;;;;;;;;29.50;33.20;;;;;;5004853;28;20008;-67
2023/05/09 08:52:56;;;;;;;;;;;29.20;33.50;;;;;;5004712;28;19994;-67
2023/05/09 08:55:21;;;;;;;;;;;29.10;33.80;;;;;;5005260;28;19910;-67
2023/05/09 08:57:47;;;;;;;;;;;29.00;34.10;;;;;;5005384;28;19971;-67
2023/05/09 09:00:13;;;;;;;;;;;29.00;34.20;;;;;;5006374;28;19921;-68
2023/05/09 09:02:39;;;;;;;;;;;28.90;34.40;;;;;;5005335;28;19952;-68
2023/05/09 09:05:06;;;;;;;;;;;28.80;34.50;;;;;;5006071;28;19910;-67
2023/05/09 09:07:32;;;;;;;;;;;28.80;34.60;;;;;;4990683;28;19921;-67
2023/05/09 09:09:58;;;;;;;;;;;28.80;34.50;;;;;;4986556;28;20352;-67
2023/05/09 09:12:23;;;;;;;;;;;28.70;34.70;;;;;;4997246;28;19952;-67
2023/05/09 09:14:51;;;;;;;;;;;28.70;34.90;;;;;;5005697;28;19910;-68
2023/05/09 09:17:19;;;;;;;;;;;28.50;35.00;;;;;;5005097;28;19914;-68
2023/05/09 09:19:47;;;;;;;;;;;28.40;35.20;;;;;;5007463;28;19914;-68
2023/05/09 09:22:14;;;;;;;;;;;28.40;35.40;;;;;;5006645;28;19910;-68
2023/05/09 09:24:39;;;;;;;;;;;28.30;35.60;;;;;;5007220;28;19929;-67
2023/05/09 09:27:05;;;;;;;;;;;28.30;35.70;;;;;;5006387;28;19914;-67
2023/05/09 09:29:32;;;;;;;;;;;28.20;35.80;;;;;;5005814;28;19936;-68
2023/05/09 09:32:00;;;;;;;;;;;28.10;35.90;;;;;;5005561;28;19937;-67
2023/05/09 09:34:25;;;;;;;;;;;28.00;36.10;;;;;;5019435;28;19922;-67
2023/05/09 09:36:52;;;;;;;;;;;27.80;36.50;;;;;;5005700;28;19984;-68
2023/05/09 09:39:17;;;;;;;;;;;27.70;36.50;;;;;;5006236;28;19918;-67
2023/05/09 09:41:46;;;;;;;;;;;27.60;36.60;;;;;;5006772;28;19916;-67
2023/05/09 09:44:11;;;;;;;;;;;27.50;36.70;;;;;;5007321;28;19928;-67
2023/05/09 09:46:50;;;;;;;;;;;27.40;37.00;;;;;;5006750;28;19918;-67
2023/05/09 09:49:16;;;;;;;;;;;27.50;37.20;;;;;;5006404;28;20496;-67
2023/05/09 09:51:42;;;;;;;;;;;27.50;37.30;;;;;;5008585;28;20091;-67
2023/05/09 09:54:08;;;;;;;;;;;27.50;37.20;;;;;;5006273;28;19918;-67
2023/05/09 09:56:41;;;;;;;;;;;27.50;37.10;;;;;;5006973;28;19917;-67
2023/05/09 09:59:07;;;;;;;;;;;27.50;37.00;;;;;;5003041;28;19918;-62
2023/05/09 10:01:32;;;;;;;;;;;27.50;37.00;;;;;;4994541;28;19917;-63
2023/05/09 10:04:01;;;;;;;;;;;27.60;36.90;;;;;;4994190;28;20020;-62
2023/05/09 10:06:27;;;;;;;;;;;27.70;37.00;;;;;;4995297;28;19948;-68
2023/05/09 10:08:52;;;;;;;;;;;27.90;36.90;;;;;;5004582;28;19922;-67
2023/05/09 10:11:17;;;;;;;;;;;28.20;36.60;;;;;;5004516;28;19914;-67
2023/05/09 10:13:44;;;;;;;;;;;28.30;36.40;;;;;;5002483;28;20357;-68
2023/05/09 10:16:10;;;;;;;;;;;28.50;36.10;;;;;;5001451;28;19909;-67
2023/05/09 10:18:36;;;;;;;;;;;28.80;35.90;;;;;;4999616;28;19937;-67
2023/05/09 10:21:03;;;;;;;;;;;29.00;35.40;;;;;;4999788;28;19910;-68
2023/05/09 10:23:30;;;;;;;;;;;29.30;35.10;;;;;;5003489;28;19922;-68
2023/05/09 10:26:03;;;;;;;;;;;29.60;34.90;;;;;;5009990;28;19937;-68
2023/05/09 10:28:31;;;;;;;;;;;29.80;34.50;;;;;;4998349;28;19918;-68
2023/05/09 10:31:19;;;;;;;;;;;30.00;33.90;;;;;;4996956;28;20265;-67
2023/05/09 10:33:49;;;;;;;;;;;30.10;33.60;;;;;;4998076;28;19918;-68
2023/05/09 10:36:15;;;;;;;;;;;30.20;33.50;;;;;;4996368;28;19968;-68
2023/05/09 10:38:41;;;;;;;;;;;30.40;33.40;;;;;;4998550;28;20399;-68
2023/05/09 10:41:07;;;;;;;;;;;30.60;33.30;;;;;;4998508;28;20004;-67
2023/05/09 10:43:33;;;;;;;;;;;30.80;33.30;;;;;;4998822;28;20304;-68
2023/05/09 10:45:58;;;;;;;;;;;31.00;32.90;;;;;;4999240;28;19914;-68
2023/05/09 10:48:24;;;;;;;;;;;30.90;32.40;;;;;;4999362;28;20382;-68
2023/05/09 10:50:50;;;;;;;;;;;30.90;32.20;;;;;;4997894;28;20017;-68
2023/05/09 10:53:20;;;;;;;;;;;30.90;32.30;;;;;;4997629;28;19940;-68
2023/05/09 10:55:46;;;;;;;;;;;31.00;32.30;;;;;;4998731;28;19953;-68
2023/05/09 10:58:18;;;;;;;;;;;31.00;32.30;;;;;;4998426;28;19921;-67
2023/05/09 11:00:44;;;;;;;;;;;31.20;32.10;;;;;;4999504;28;19917;-68
2023/05/09 11:03:09;;;;;;;;;;;31.50;32.00;;;;;;5000322;28;19925;-68
2023/05/09 11:05:38;;;;;;;;;;;32.00;31.60;;;;;;4998308;28;19914;-67
2023/05/09 11:08:39;;;;;;;;;;;32.20;30.70;;;;;;4998319;28;19964;-68
2023/05/09 11:11:05;;;;;;;;;;;32.10;30.10;;;;;;4957796;29;19920;-68
2023/05/09 11:13:32;;;;;;;;;;;32.10;30.40;;;;;;4977625;28;19979;-68
2023/05/09 11:16:00;;;;;;;;;;;32.10;30.20;;;;;;4997659;28;19949;-68
2023/05/09 11:18:29;;;;;;;;;;;32.00;30.30;;;;;;4996914;28;19988;-68
2023/05/09 11:20:55;;;;;;;;;;;32.00;30.40;;;;;;4996747;28;19917;-68
2023/05/09 11:23:22;;;;;;;;;;;31.90;30.30;;;;;;4999536;28;20439;-68
2023/05/09 11:25:47;;;;;;;;;;;31.80;30.40;;;;;;5015577;28;19973;-69
2023/05/09 11:28:27;;;;;;;;;;;31.70;30.60;;;;;;4999741;28;19935;-68
2023/05/09 11:30:52;;;;;;;;;;;31.70;30.80;;;;;;4995589;28;20526;-68
2023/05/09 11:33:22;;;;;;;;;;;31.50;30.90;;;;;;4990588;28;19918;-67
2023/05/09 11:36:08;;;;;;;;;;;31.50;30.90;;;;;;4984851;28;19913;-68
2023/05/09 11:38:40;;;;;;;;;;;31.40;30.90;;;;;;4995603;28;19922;-67
2023/05/09 11:41:07;;;;;;;;;;;31.40;31.00;;;;;;4995555;28;19917;-69
2023/05/09 11:43:33;;;;;;;;;;;31.40;31.00;;;;;;4995203;28;20008;-67
2023/05/09 11:45:59;;;;;;;;;;;31.40;30.80;;;;;;4995464;28;19910;-66
2023/05/09 11:48:24;;;;;;;;;;;31.40;30.80;;;;;;4993823;28;19948;-66
2023/05/09 11:50:50;;;;;;;;;;;31.40;30.70;;;;;;4995903;28;20396;-67
2023/05/09 11:53:15;;;;;;;;;;;31.60;30.90;;;;;;4995283;28;20474;-67
2023/05/09 11:55:41;;;;;;;;;;;31.80;30.90;;;;;;4997036;28;19909;-67
2023/05/09 11:58:06;;;;;;;;;;;32.00;30.70;;;;;;4996103;28;19924;-67
2023/05/09 12:00:32;;;;;;;;;;;32.20;30.40;;;;;;4978370;28;19944;-67
2023/05/09 12:02:57;;;;;;;;;;;32.30;29.90;;;;;;4995769;28;19964;-67
2023/05/09 12:05:23;;;;;;;;;;;32.20;29.70;;;;;;4996519;28;19910;-67
2023/05/09 12:07:48;;;;;;;;;;;32.10;29.80;;;;;;5010517;28;20009;-67
2023/05/09 12:10:15;;;;;;;;;;;32.20;29.70;;;;;;4996746;28;19917;-67
2023/05/09 12:12:44;;;;;;;;;;;32.20;29.70;;;;;;4998484;28;20288;-67
2023/05/09 12:15:10;;;;;;;;;;;32.30;29.90;;;;;;5000533;28;20423;-66
2023/05/09 12:17:36;;;;;;;;;;;32.20;29.30;;;;;;4983417;28;20011;-67
2023/05/09 12:20:03;;;;;;;;;;;32.30;29.60;;;;;;5000154;28;19973;-67
2023/05/09 12:22:29;;;;;;;;;;;32.50;29.40;;;;;;4999307;28;19920;-67
2023/05/09 12:24:55;;;;;;;;;;;32.20;29.10;;;;;;5017329;28;20355;-67
2023/05/09 12:27:20;;;;;;;;;;;32.20;29.30;;;;;;5002316;28;19941;-67
2023/05/09 12:29:47;;;;;;;;;;;32.10;29.10;;;;;;5000431;28;20013;-68
2023/05/09 12:32:15;;;;;;;;;;;32.00;29.10;;;;;;4999159;28;20464;-67
2023/05/09 12:34:43;;;;;;;;;;;31.70;29.20;;;;;;5000054;28;19921;-68
2023/05/09 12:37:13;;;;;;;;;;;31.60;29.50;;;;;;5000411;28;20004;-68
2023/05/09 12:39:38;;;;;;;;;;;32.00;29.30;;;;;;5000734;28;19918;-67
2023/05/09 12:42:10;;;;;;;;;;;32.50;28.90;;;;;;5001552;28;19921;-68
2023/05/09 12:44:35;;;;;;;;;;;32.90;28.20;;;;;;4993353;28;19918;-68
2023/05/09 12:47:02;;;;;;;;;;;33.20;27.80;;;;;;4981396;28;19922;-68
2023/05/09 12:49:28;;;;;;;;;;;33.50;27.50;;;;;;4990396;28;19917;-67
2023/05/09 12:51:54;;;;;;;;;;;33.50;27.60;;;;;;5001723;28;20380;-67
2023/05/09 12:54:23;;;;;;;;;;;33.40;27.70;;;;;;5002210;28;19921;-68
2023/05/09 12:56:51;;;;;;;;;;;33.50;27.70;;;;;;5002774;28;20439;-68
2023/05/09 12:59:20;;;;;;;;;;;33.80;27.60;;;;;;5001577;28;19922;-68
2023/05/09 13:01:51;;;;;;;;;;;33.90;27.50;;;;;;5000941;28;20000;-68
2023/05/09 13:04:18;;;;;;;;;;;33.70;27.40;;;;;;4993503;28;19922;-68
2023/05/09 13:06:48;;;;;;;;;;;33.50;27.30;;;;;;4982622;28;19910;-68
2023/05/09 13:09:13;;;;;;;;;;;33.50;27.40;;;;;;4989664;28;19972;-67
2023/05/09 13:11:39;;;;;;;;;;;33.80;27.30;;;;;;5000513;28;20444;-67
2023/05/09 13:14:04;;;;;;;;;;;33.80;26.90;;;;;;5001402;28;19921;-68
2023/05/09 13:16:30;;;;;;;;;;;33.80;27.00;;;;;;5001856;28;19914;-68
2023/05/09 13:18:55;;;;;;;;;;;33.70;27.20;;;;;;4999316;28;19985;-68
2023/05/09 13:21:20;;;;;;;;;;;33.40;27.50;;;;;;5000052;28;20293;-68
2023/05/09 13:23:48;;;;;;;;;;;33.20;27.70;;;;;;4999396;28;19918;-68
2023/05/09 13:26:14;;;;;;;;;;;33.00;27.90;;;;;;5000610;28;20009;-68
2023/05/09 13:28:39;;;;;;;;;;;32.80;28.10;;;;;;4987615;28;19919;-67
2023/05/09 13:31:05;;;;;;;;;;;32.70;28.50;;;;;;4980911;28;19914;-63
2023/05/09 13:33:31;;;;;;;;;;;32.50;28.50;;;;;;4994266;28;20270;-62
2023/05/09 13:35:56;;;;;;;;;;;32.50;28.60;;;;;;4994814;28;19916;-64
2023/05/09 13:38:21;;;;;;;;;;;32.40;28.30;;;;;;4992932;28;20024;-63
2023/05/09 13:40:47;;;;;;;;;;;32.40;28.50;;;;;;4983885;28;19914;-62
2023/05/09 13:43:12;;;;;;;;;;;32.30;28.60;;;;;;4994581;28;20013;-62
2023/05/09 13:45:38;;;;;;;;;;;32.20;28.80;;;;;;4982455;28;20453;-62
2023/05/09 13:48:03;;;;;;;;;;;32.20;28.80;;;;;;4974943;28;19953;-62
2023/05/09 13:50:29;;;;;;;;;;;32.30;28.70;;;;;;4975037;28;19921;-61
2023/05/09 13:52:54;;;;;;;;;;;32.20;28.80;;;;;;4992047;28;19944;-62
2023/05/09 13:55:20;;;;;;;;;;;32.30;28.80;;;;;;4993512;28;20329;-62
2023/05/09 13:57:45;;;;;;;;;;;32.60;28.60;;;;;;4993712;28;20016;-62
2023/05/09 14:00:11;;;;;;;;;;;32.30;28.50;;;;;;4988912;28;19949;-63
2023/05/09 14:02:36;;;;;;;;;;;32.10;28.80;;;;;;4993278;28;20004;-62
2023/05/09 14:05:03;;;;;;;;;;;31.80;29.20;;;;;;4994398;28;19944;-62
2023/05/09 14:07:28;;;;;;;;;;;31.50;29.30;;;;;;4993579;28;19921;-62
2023/05/09 14:09:53;;;;;;;;;;;31.70;29.40;;;;;;4994128;28;19916;-61
2023/05/09 14:12:19;;;;;;;;;;;31.80;29.30;;;;;;4993904;28;20001;-61